sensor_id;sensor_type;location;lat;lon;timestamp;pressure;altitude;pressure_sealevel;temperature;humidity
7760;BME280;3924;48.830;9.262;2023-04-09T00:01:40;99284.69;;;7.85;73.60
7760;BME280;3924;48.830;9.262;2023-04-09T00:04:07;99280.09;;;7.86;73.41
7760;BME280;3924;48.830;9.262;2023-04-09T00:06:33;99284.69;;;7.85;73.44
7760;BME280;3924;48.830;9.262;2023-04-09T00:09:00;99280.91;;;7.86;73.71
7760;BME280;3924;48.830;9.262;2023-04-09T00:11:26;99281.72;;;7.87;73.82
7760;BME280;3924;48.830;9.262;2023-04-09T00:13:53;99282.53;;;7.87;73.88
7760;BME280;3924;48.830;9.262;2023-04-09T00:16:19;99274.72;;;7.86;73.75
7760;BME280;3924;48.830;9.262;2023-04-09T00:18:46;99278.78;;;7.88;73.85
7760;BME280;3924;48.830;9.262;2023-04-09T00:21:18;99278.78;;;7.88;73.80
7760;BME280;3924;48.830;9.262;2023-04-09T00:23:49;99269.84;;;7.88;73.70
7760;BME280;3924;48.830;9.262;2023-04-09T00:26:48;99268.78;;;7.89;73.98
7760;BME280;3924;48.830;9.262;2023-04-09T00:29:20;99279.34;;;7.90;73.79
7760;BME280;3924;48.830;9.262;2023-04-09T00:32:31;99275.03;;;7.89;73.89
7760;BME280;3924;48.830;9.262;2023-04-09T00:35:32;99270.66;;;7.88;73.86
7760;BME280;3924;48.830;9.262;2023-04-09T00:38:38;99276.06;;;7.88;73.99
7760;BME280;3924;48.830;9.262;2023-04-09T00:41:27;99273.38;;;7.88;74.04
7760;BME280;3924;48.830;9.262;2023-04-09T00:47:44;99266.34;;;7.87;74.01
7760;BME280;3924;48.830;9.262;2023-04-09T00:54:13;99271.19;;;7.85;74.37
7760;BME280;3924;48.830;9.262;2023-04-09T00:57:08;99277.66;;;7.84;74.16
7760;BME280;3924;48.830;9.262;2023-04-09T00:59:45;99270.66;;;7.83;74.32
7760;BME280;3924;48.830;9.262;2023-04-09T01:02:26;99272.78;;;7.81;74.51
7760;BME280;3924;48.830;9.262;2023-04-09T01:16:00;99271.38;;;7.47;75.04
7760;BME280;3924;48.830;9.262;2023-04-09T01:18:46;99266.97;;;7.40;74.97
7760;BME280;3924;48.830;9.262;2023-04-09T01:21:23;99264.88;;;7.43;75.22
7760;BME280;3924;48.830;9.262;2023-04-09T01:27:02;99262.78;;;7.50;75.21
7760;BME280;3924;48.830;9.262;2023-04-09T01:29:33;99261.44;;;7.52;75.25
7760;BME280;3924;48.830;9.262;2023-04-09T01:32:04;99262.81;;;7.55;75.27
7760;BME280;3924;48.830;9.262;2023-04-09T01:34:32;99258.00;;;7.57;75.32
7760;BME280;3924;48.830;9.262;2023-04-09T01:37:01;99272.03;;;7.59;75.39
7760;BME280;3924;48.830;9.262;2023-04-09T01:39:28;99263.94;;;7.59;75.39
7760;BME280;3924;48.830;9.262;2023-04-09T01:41:55;99275.53;;;7.59;75.29
7760;BME280;3924;48.830;9.262;2023-04-09T01:44:23;99264.75;;;7.59;75.08
7760;BME280;3924;48.830;9.262;2023-04-09T01:46:52;99278.78;;;7.61;75.30
7760;BME280;3924;48.830;9.262;2023-04-09T01:49:20;99269.88;;;7.61;75.55
7760;BME280;3924;48.830;9.262;2023-04-09T01:51:47;99276.34;;;7.60;75.47
7760;BME280;3924;48.830;9.262;2023-04-09T01:54:15;99266.63;;;7.59;75.42
7760;BME280;3924;48.830;9.262;2023-04-09T01:56:46;99270.41;;;7.58;75.68
7760;BME280;3924;48.830;9.262;2023-04-09T01:59:13;99273.38;;;7.56;75.49
7760;BME280;3924;48.830;9.262;2023-04-09T02:01:52;99279.84;;;7.55;75.58
7760;BME280;3924;48.830;9.262;2023-04-09T02:04:32;99266.56;;;7.54;75.73
7760;BME280;3924;48.830;9.262;2023-04-09T02:07:14;99274.13;;;7.52;75.75
7760;BME280;3924;48.830;9.262;2023-04-09T02:09:45;99273.81;;;7.48;75.79
7760;BME280;3924;48.830;9.262;2023-04-09T02:12:16;99269.75;;;7.46;75.71
7760;BME280;3924;48.830;9.262;2023-04-09T02:14:47;99270.81;;;7.45;76.23
7760;BME280;3924;48.830;9.262;2023-04-09T02:17:16;99270.81;;;7.45;75.85
7760;BME280;3924;48.830;9.262;2023-04-09T02:19:45;99270.25;;;7.43;76.02
7760;BME280;3924;48.830;9.262;2023-04-09T02:22:12;99270.75;;;7.39;76.01
7760;BME280;3924;48.830;9.262;2023-04-09T02:24:39;99264.25;;;7.35;75.99
7760;BME280;3924;48.830;9.262;2023-04-09T02:27:06;99272.56;;;7.34;76.35
7760;BME280;3924;48.830;9.262;2023-04-09T02:29:33;99267.69;;;7.31;76.32
7760;BME280;3924;48.830;9.262;2023-04-09T02:31:59;99261.50;;;7.30;76.35
7760;BME280;3924;48.830;9.262;2023-04-09T02:34:26;99263.38;;;7.30;76.33
7760;BME280;3924;48.830;9.262;2023-04-09T02:36:53;99265.75;;;7.26;76.49
7760;BME280;3924;48.830;9.262;2023-04-09T02:39:19;99262.50;;;7.24;76.44
7760;BME280;3924;48.830;9.262;2023-04-09T02:41:46;99258.44;;;7.22;76.58
7760;BME280;3924;48.830;9.262;2023-04-09T02:44:12;99258.13;;;7.18;76.66
7760;BME280;3924;48.830;9.262;2023-04-09T02:46:40;99260.25;;;7.16;76.59
7760;BME280;3924;48.830;9.262;2023-04-09T02:49:06;99258.63;;;7.15;76.79
7760;BME280;3924;48.830;9.262;2023-04-09T02:51:34;99254.53;;;7.12;76.91
7760;BME280;3924;48.830;9.262;2023-04-09T02:54:02;99263.44;;;7.13;76.62
7760;BME280;3924;48.830;9.262;2023-04-09T02:56:28;99270.25;;;7.16;76.84
7760;BME280;3924;48.830;9.262;2023-04-09T02:58:55;99259.72;;;7.14;76.96
7760;BME280;3924;48.830;9.262;2023-04-09T03:01:21;99257.56;;;7.16;76.99
7760;BME280;3924;48.830;9.262;2023-04-09T03:03:48;99257.03;;;7.19;76.99
7760;BME280;3924;48.830;9.262;2023-04-09T03:06:15;99252.25;;;7.21;76.87
7760;BME280;3924;48.830;9.262;2023-04-09T03:08:43;99250.59;;;7.20;76.98
7760;BME280;3924;48.830;9.262;2023-04-09T03:11:10;99251.44;;;7.21;76.94
7760;BME280;3924;48.830;9.262;2023-04-09T03:13:36;99248.97;;;7.19;77.05
7760;BME280;3924;48.830;9.262;2023-04-09T03:16:03;99250.28;;;7.17;76.87
7760;BME280;3924;48.830;9.262;2023-04-09T03:18:29;99244.91;;;7.17;77.19
7760;BME280;3924;48.830;9.262;2023-04-09T03:20:59;99254.34;;;7.19;77.27
7760;BME280;3924;48.830;9.262;2023-04-09T03:24:06;99252.25;;;7.21;76.89
7760;BME280;3924;48.830;9.262;2023-04-09T03:26:35;99253.06;;;7.22;76.96
7760;BME280;3924;48.830;9.262;2023-04-09T03:35:51;99247.06;;;7.20;77.04
7760;BME280;3924;48.830;9.262;2023-04-09T03:38:22;99251.44;;;7.21;77.42
7760;BME280;3924;48.830;9.262;2023-04-09T03:40:53;99245.19;;;7.20;77.58
7760;BME280;3924;48.830;9.262;2023-04-09T03:43:33;99245.72;;;7.17;77.19
7760;BME280;3924;48.830;9.262;2023-04-09T03:46:21;99241.13;;;7.18;77.44
7760;BME280;3924;48.830;9.262;2023-04-09T03:48:55;99244.91;;;7.17;77.56
7760;BME280;3924;48.830;9.262;2023-04-09T03:51:31;99244.09;;;7.16;77.61
7760;BME280;3924;48.830;9.262;2023-04-09T03:54:08;99244.34;;;7.15;77.69
7760;BME280;3924;48.830;9.262;2023-04-09T03:56:56;99248.34;;;7.12;77.81
7760;BME280;3924;48.830;9.262;2023-04-09T03:59:41;99242.66;;;7.08;77.62
7760;BME280;3924;48.830;9.262;2023-04-09T04:02:34;99238.81;;;7.04;77.71
7760;BME280;3924;48.830;9.262;2023-04-09T04:05:06;99235.84;;;7.01;78.02
7760;BME280;3924;48.830;9.262;2023-04-09T04:07:43;99228.78;;;7.00;77.83
7760;BME280;3924;48.830;9.262;2023-04-09T04:10:17;99239.81;;;6.98;77.98
7760;BME280;3924;48.830;9.262;2023-04-09T04:12:51;99236.03;;;6.94;78.15
7760;BME280;3924;48.830;9.262;2023-04-09T04:16:15;99244.34;;;6.93;77.98
7760;BME280;3924;48.830;9.262;2023-04-09T04:19:11;99248.91;;;6.92;78.06
7760;BME280;3924;48.830;9.262;2023-04-09T04:21:45;99250.25;;;6.90;78.24
7760;BME280;3924;48.830;9.262;2023-04-09T04:24:40;99249.44;;;6.89;78.33
7760;BME280;3924;48.830;9.262;2023-04-09T04:27:25;99251.88;;;6.91;78.59
7760;BME280;3924;48.830;9.262;2023-04-09T04:30:10;99255.13;;;6.93;78.59
7760;BME280;3924;48.830;9.262;2023-04-09T04:32:44;99248.91;;;6.92;78.58
7760;BME280;3924;48.830;9.262;2023-04-09T04:36:02;99256.53;;;6.95;78.41
7760;BME280;3924;48.830;9.262;2023-04-09T04:38:58;99254.63;;;6.96;78.40
7760;BME280;3924;48.830;9.262;2023-04-09T04:42:26;99267.84;;;6.97;78.49
7760;BME280;3924;48.830;9.262;2023-04-09T04:44:50;99262.47;;;6.97;78.43
7760;BME280;3924;48.830;9.262;2023-04-09T04:47:50;99261.34;;;6.93;78.62
7760;BME280;3924;48.830;9.262;2023-04-09T04:53:29;99260.28;;;6.94;78.65
7760;BME280;3924;48.830;9.262;2023-04-09T04:56:41;99262.16;;;6.94;78.80
7760;BME280;3924;48.830;9.262;2023-04-09T04:59:24;99267.56;;;6.94;78.81
7760;BME280;3924;48.830;9.262;2023-04-09T05:02:00;99265.41;;;6.96;78.77
7760;BME280;3924;48.830;9.262;2023-04-09T05:04:32;99268.66;;;6.98;78.99
7760;BME280;3924;48.830;9.262;2023-04-09T05:07:06;99275.19;;;7.02;78.77
7760;BME280;3924;48.830;9.262;2023-04-09T05:09:46;99267.41;;;7.05;78.82
7760;BME280;3924;48.830;9.262;2023-04-09T05:16:53;99270.09;;;7.05;78.59
7760;BME280;3924;48.830;9.262;2023-04-09T05:20:02;99280.06;;;7.05;78.86
7760;BME280;3924;48.830;9.262;2023-04-09T05:26:11;99275.81;;;7.09;78.81
7760;BME280;3924;48.830;9.262;2023-04-09T05:29:17;99280.66;;;7.07;78.76
7760;BME280;3924;48.830;9.262;2023-04-09T05:36:05;99282.13;;;7.20;78.82
7760;BME280;3924;48.830;9.262;2023-04-09T05:42:08;99273.28;;;7.24;78.68
7760;BME280;3924;48.830;9.262;2023-04-09T05:44:55;99277.06;;;7.23;78.58
7760;BME280;3924;48.830;9.262;2023-04-09T05:48:22;99276.53;;;7.26;78.80
7760;BME280;3924;48.830;9.262;2023-04-09T05:51:03;99275.06;;;7.40;78.65
7760;BME280;3924;48.830;9.262;2023-04-09T05:57:35;99271.25;;;7.90;77.87
7760;BME280;3924;48.830;9.262;2023-04-09T06:00:21;99278.94;;;8.09;77.86
7760;BME280;3924;48.830;9.262;2023-04-09T06:02:55;99277.41;;;8.23;77.66
7760;BME280;3924;48.830;9.262;2023-04-09T06:05:29;99281.94;;;8.44;77.27
7760;BME280;3924;48.830;9.262;2023-04-09T06:07:57;99276.06;;;8.58;77.08
7760;BME280;3924;48.830;9.262;2023-04-09T06:10:39;99277.25;;;8.72;76.87
7760;BME280;3924;48.830;9.262;2023-04-09T06:13:13;99275.16;;;8.89;76.45
7760;BME280;3924;48.830;9.262;2023-04-09T06:15:41;99285.75;;;9.01;76.33
7760;BME280;3924;48.830;9.262;2023-04-09T06:18:21;99286.25;;;8.98;76.28
7760;BME280;3924;48.830;9.262;2023-04-09T06:21:03;99288.47;;;9.01;76.27
7760;BME280;3924;48.830;9.262;2023-04-09T06:23:47;99292.00;;;9.07;76.04
7760;BME280;3924;48.830;9.262;2023-04-09T06:26:19;99290.69;;;9.14;76.14
7760;BME280;3924;48.830;9.262;2023-04-09T06:28:50;99288.81;;;9.20;75.94
7760;BME280;3924;48.830;9.262;2023-04-09T06:31:23;99280.16;;;9.23;75.76
7760;BME280;3924;48.830;9.262;2023-04-09T06:33:52;99281.75;;;9.19;75.90
7760;BME280;3924;48.830;9.262;2023-04-09T06:36:32;99277.41;;;9.18;75.58
7760;BME280;3924;48.830;9.262;2023-04-09T06:39:19;99274.22;;;9.31;75.69
7760;BME280;3924;48.830;9.262;2023-04-09T06:41:53;99278.63;;;9.47;75.40
7760;BME280;3924;48.830;9.262;2023-04-09T06:44:21;99282.94;;;9.58;74.96
7760;BME280;3924;48.830;9.262;2023-04-09T06:46:53;99283.78;;;9.64;74.93
7760;BME280;3924;48.830;9.262;2023-04-09T06:49:23;99283.53;;;9.76;74.74
7760;BME280;3924;48.830;9.262;2023-04-09T06:52:00;99284.06;;;9.83;74.47
7760;BME280;3924;48.830;9.262;2023-04-09T06:54:33;99284.59;;;9.85;74.37
7760;BME280;3924;48.830;9.262;2023-04-09T06:57:10;99289.75;;;9.92;74.22
7760;BME280;3924;48.830;9.262;2023-04-09T07:00:06;99288.97;;;9.96;74.14
7760;BME280;3924;48.830;9.262;2023-04-09T07:03:03;99292.19;;;10.13;73.82
7760;BME280;3924;48.830;9.262;2023-04-09T07:05:36;99291.16;;;10.25;73.38
7760;BME280;3924;48.830;9.262;2023-04-09T07:08:24;99290.63;;;10.23;73.30
7760;BME280;3924;48.830;9.262;2023-04-09T07:10:52;99291.41;;;10.28;73.15
7760;BME280;3924;48.830;9.262;2023-04-09T07:13:26;99296.03;;;10.33;72.96
7760;BME280;3924;48.830;9.262;2023-04-09T07:16:37;99294.38;;;10.42;72.63
7760;BME280;3924;48.830;9.262;2023-04-09T07:19:49;99298.19;;;10.41;72.41
7760;BME280;3924;48.830;9.262;2023-04-09T07:26:05;99295.97;;;10.74;71.75
7760;BME280;3924;48.830;9.262;2023-04-09T07:28:31;99299.72;;;10.88;71.43
7760;BME280;3924;48.830;9.262;2023-04-09T07:30:59;99294.25;;;10.98;70.95
7760;BME280;3924;48.830;9.262;2023-04-09T07:33:28;99298.59;;;10.94;71.01
7760;BME280;3924;48.830;9.262;2023-04-09T07:35:54;99303.50;;;10.92;70.94
7760;BME280;3924;48.830;9.262;2023-04-09T07:38:21;99302.41;;;10.98;70.79
7760;BME280;3924;48.830;9.262;2023-04-09T07:40:48;99311.59;;;11.07;70.46
7760;BME280;3924;48.830;9.262;2023-04-09T07:43:14;99307.78;;;11.08;70.45
7760;BME280;3924;48.830;9.262;2023-04-09T07:45:42;99314.81;;;11.14;70.00
7760;BME280;3924;48.830;9.262;2023-04-09T07:48:09;99317.47;;;11.30;69.96
7760;BME280;3924;48.830;9.262;2023-04-09T07:50:36;99313.06;;;11.39;69.52
7760;BME280;3924;48.830;9.262;2023-04-09T07:53:03;99319.03;;;11.41;69.30
7760;BME280;3924;48.830;9.262;2023-04-09T07:55:29;99316.56;;;11.44;69.21
7760;BME280;3924;48.830;9.262;2023-04-09T07:57:56;99317.06;;;11.51;68.67
7760;BME280;3924;48.830;9.262;2023-04-09T08:00:22;99315.72;;;11.54;68.59
7760;BME280;3924;48.830;9.262;2023-04-09T08:02:49;99314.03;;;11.63;68.40
7760;BME280;3924;48.830;9.262;2023-04-09T08:05:16;99319.97;;;11.70;67.92
7760;BME280;3924;48.830;9.262;2023-04-09T08:07:43;99315.09;;;11.67;67.75
7760;BME280;3924;48.830;9.262;2023-04-09T08:10:09;99314.81;;;11.69;67.50
7760;BME280;3924;48.830;9.262;2023-04-09T08:12:40;99315.84;;;11.78;67.14
7760;BME280;3924;48.830;9.262;2023-04-09T08:15:07;99316.88;;;11.92;66.72
7760;BME280;3924;48.830;9.262;2023-04-09T08:17:34;99317.63;;;12.03;66.35
7760;BME280;3924;48.830;9.262;2023-04-09T08:20:03;99325.25;;;12.01;66.34
7760;BME280;3924;48.830;9.262;2023-04-09T08:22:30;99316.22;;;12.05;66.25
7760;BME280;3924;48.830;9.262;2023-04-09T08:24:57;99313.69;;;12.14;65.77
7760;BME280;3924;48.830;9.262;2023-04-09T08:27:27;99325.06;;;12.21;65.29
7760;BME280;3924;48.830;9.262;2023-04-09T08:29:53;99319.69;;;12.16;65.05
7760;BME280;3924;48.830;9.262;2023-04-09T08:32:20;99311.72;;;12.25;65.04
7760;BME280;3924;48.830;9.262;2023-04-09T08:34:47;99327.75;;;12.26;64.54
7760;BME280;3924;48.830;9.262;2023-04-09T08:37:13;99325.00;;;12.31;64.27
7760;BME280;3924;48.830;9.262;2023-04-09T08:39:40;99319.97;;;12.15;64.25
7760;BME280;3924;48.830;9.262;2023-04-09T08:42:07;99333.19;;;12.26;63.90
7760;BME280;3924;48.830;9.262;2023-04-09T08:44:34;99321.38;;;12.41;63.61
7760;BME280;3924;48.830;9.262;2023-04-09T08:47:00;99324.78;;;12.57;63.01
7760;BME280;3924;48.830;9.262;2023-04-09T08:49:27;99323.56;;;12.68;62.71
7760;BME280;3924;48.830;9.262;2023-04-09T08:51:54;99317.44;;;12.81;62.32
7760;BME280;3924;48.830;9.262;2023-04-09T08:54:20;99319.66;;;12.79;62.01
7760;BME280;3924;48.830;9.262;2023-04-09T08:56:48;99320.72;;;12.83;61.78
7760;BME280;3924;48.830;9.262;2023-04-09T08:59:15;99324.88;;;13.00;61.30
7760;BME280;3924;48.830;9.262;2023-04-09T09:01:46;99331.19;;;13.19;60.83
7760;BME280;3924;48.830;9.262;2023-04-09T09:04:18;99327.91;;;13.22;60.48
7760;BME280;3924;48.830;9.262;2023-04-09T09:06:44;99322.69;;;13.26;60.27
7760;BME280;3924;48.830;9.262;2023-04-09T09:09:15;99326.41;;;13.11;60.08
7760;BME280;3924;48.830;9.262;2023-04-09T09:11:46;99332.22;;;12.99;60.03
7760;BME280;3924;48.830;9.262;2023-04-09T09:14:15;99339.50;;;12.80;60.34
7760;BME280;3924;48.830;9.262;2023-04-09T09:21:59;99331.09;;;13.29;58.76
7760;BME280;3924;48.830;9.262;2023-04-09T09:24:26;99330.94;;;13.21;58.70
7760;BME280;3924;48.830;9.262;2023-04-09T09:26:53;99326.03;;;13.41;58.18
7760;BME280;3924;48.830;9.262;2023-04-09T09:29:20;99337.19;;;13.16;58.52
7760;BME280;3924;48.830;9.262;2023-04-09T09:31:49;99331.22;;;12.66;59.23
7760;BME280;3924;48.830;9.262;2023-04-09T09:34:17;99333.16;;;12.31;59.84
7760;BME280;3924;48.830;9.262;2023-04-09T09:36:45;99341.31;;;12.31;59.85
7760;BME280;3924;48.830;9.262;2023-04-09T09:39:12;99328.59;;;12.56;59.12
7760;BME280;3924;48.830;9.262;2023-04-09T09:41:39;99337.78;;;12.60;59.05
7760;BME280;3924;48.830;9.262;2023-04-09T09:44:08;99336.09;;;12.93;58.39
7760;BME280;3924;48.830;9.262;2023-04-09T09:46:37;99337.97;;;12.98;57.93
7760;BME280;3924;48.830;9.262;2023-04-09T09:49:04;99336.75;;;12.85;57.88
7760;BME280;3924;48.830;9.262;2023-04-09T09:51:32;99346.00;;;12.55;58.49
7760;BME280;3924;48.830;9.262;2023-04-09T09:54:00;99333.41;;;12.64;58.27
7760;BME280;3924;48.830;9.262;2023-04-09T09:56:30;99336.00;;;12.50;58.39
7760;BME280;3924;48.830;9.262;2023-04-09T10:01:29;99324.53;;;12.53;58.41
7760;BME280;3924;48.830;9.262;2023-04-09T10:03:59;99328.34;;;13.05;56.99
7760;BME280;3924;48.830;9.262;2023-04-09T10:06:27;99319.72;;;13.65;56.08
7760;BME280;3924;48.830;9.262;2023-04-09T10:08:57;99322.22;;;13.43;56.28
7760;BME280;3924;48.830;9.262;2023-04-09T10:11:26;99326.19;;;13.02;56.86
7760;BME280;3924;48.830;9.262;2023-04-09T10:13:56;99331.72;;;12.97;56.95
7760;BME280;3924;48.830;9.262;2023-04-09T10:16:25;99328.91;;;12.78;57.14
7760;BME280;3924;48.830;9.262;2023-04-09T10:18:54;99331.38;;;13.04;56.47
7760;BME280;3924;48.830;9.262;2023-04-09T10:21:46;99327.19;;;12.87;56.71
7760;BME280;3924;48.830;9.262;2023-04-09T10:24:15;99324.41;;;13.17;55.93
7760;BME280;3924;48.830;9.262;2023-04-09T10:26:42;99323.97;;;13.33;55.39
7760;BME280;3924;48.830;9.262;2023-04-09T10:29:13;99324.22;;;13.08;55.64
7760;BME280;3924;48.830;9.262;2023-04-09T10:32:05;99319.38;;;13.05;55.67
7760;BME280;3924;48.830;9.262;2023-04-09T10:34:38;99304.25;;;13.41;54.79
7760;BME280;3924;48.830;9.262;2023-04-09T10:37:13;99318.63;;;13.23;54.99
7760;BME280;3924;48.830;9.262;2023-04-09T10:39:43;99318.25;;;13.54;54.36
7760;BME280;3924;48.830;9.262;2023-04-09T10:42:19;99311.22;;;14.23;53.33
7760;BME280;3924;48.830;9.262;2023-04-09T10:45:09;99307.13;;;14.39;52.58
7760;BME280;3924;48.830;9.262;2023-04-09T10:47:40;99311.16;;;14.28;52.59
7760;BME280;3924;48.830;9.262;2023-04-09T10:50:20;99316.50;;;14.01;53.19
7760;BME280;3924;48.830;9.262;2023-04-09T10:52:54;99308.16;;;14.11;52.93
7760;BME280;3924;48.830;9.262;2023-04-09T10:55:31;99302.16;;;14.74;51.87
7760;BME280;3924;48.830;9.262;2023-04-09T10:57:58;99306.03;;;15.00;50.99
7760;BME280;3924;48.830;9.262;2023-04-09T11:00:24;99309.13;;;14.66;51.31
7760;BME280;3924;48.830;9.262;2023-04-09T11:03:21;99298.34;;;14.10;52.14
7760;BME280;3924;48.830;9.262;2023-04-09T11:06:12;99303.59;;;13.87;52.45
7760;BME280;3924;48.830;9.262;2023-04-09T11:08:37;99290.53;;;14.22;51.82
7760;BME280;3924;48.830;9.262;2023-04-09T11:11:03;99301.78;;;14.81;50.57
7760;BME280;3924;48.830;9.262;2023-04-09T11:13:31;99293.28;;;15.10;49.97
7760;BME280;3924;48.830;9.262;2023-04-09T11:15:58;99290.00;;;15.49;49.25
7760;BME280;3924;48.830;9.262;2023-04-09T11:18:28;99297.16;;;15.86;48.54
7760;BME280;3924;48.830;9.262;2023-04-09T11:20:56;99287.50;;;16.11;47.54
7760;BME280;3924;48.830;9.262;2023-04-09T11:23:23;99285.34;;;16.22;47.66
7760;BME280;3924;48.830;9.262;2023-04-09T11:25:51;99282.94;;;16.20;47.35
7760;BME280;3924;48.830;9.262;2023-04-09T11:28:18;99287.28;;;15.63;48.12
7760;BME280;3924;48.830;9.262;2023-04-09T11:30:45;99280.31;;;15.29;48.50
7760;BME280;3924;48.830;9.262;2023-04-09T11:33:14;99283.34;;;15.41;48.43
7760;BME280;3924;48.830;9.262;2023-04-09T11:35:45;99285.16;;;15.59;47.95
7760;BME280;3924;48.830;9.262;2023-04-09T11:38:11;99280.97;;;15.76;47.35
7760;BME280;3924;48.830;9.262;2023-04-09T11:40:42;99280.09;;;15.67;47.32
7760;BME280;3924;48.830;9.262;2023-04-09T11:43:14;99266.56;;;15.84;47.11
7760;BME280;3924;48.830;9.262;2023-04-09T11:45:42;99266.00;;;15.96;46.69
7760;BME280;3924;48.830;9.262;2023-04-09T11:48:09;99271.72;;;16.08;46.23
7760;BME280;3924;48.830;9.262;2023-04-09T11:50:36;99271.03;;;16.25;46.06
7760;BME280;3924;48.830;9.262;2023-04-09T11:53:17;99259.16;;;16.60;45.20
7760;BME280;3924;48.830;9.262;2023-04-09T11:55:46;99267.47;;;16.78;45.00
7760;BME280;3924;48.830;9.262;2023-04-09T11:58:13;99266.09;;;16.89;44.43
7760;BME280;3924;48.830;9.262;2023-04-09T12:00:39;99265.66;;;17.04;44.21
7760;BME280;3924;48.830;9.262;2023-04-09T12:03:06;99266.81;;;17.12;44.07
7760;BME280;3924;48.830;9.262;2023-04-09T12:05:33;99260.19;;;17.21;43.74
7760;BME280;3924;48.830;9.262;2023-04-09T12:08:07;99259.44;;;17.30;43.37
7760;BME280;3924;48.830;9.262;2023-04-09T12:10:35;99261.53;;;17.33;43.26
7760;BME280;3924;48.830;9.262;2023-04-09T12:13:05;99269.41;;;17.34;42.81
7760;BME280;3924;48.830;9.262;2023-04-09T12:15:34;99267.00;;;17.33;42.78
7760;BME280;3924;48.830;9.262;2023-04-09T12:18:01;99256.38;;;17.31;42.47
7760;BME280;3924;48.830;9.262;2023-04-09T12:20:36;99241.22;;;17.42;42.24
7760;BME280;3924;48.830;9.262;2023-04-09T12:23:05;99250.75;;;17.62;41.86
7760;BME280;3924;48.830;9.262;2023-04-09T12:25:34;99257.03;;;17.37;41.92
7760;BME280;3924;48.830;9.262;2023-04-09T12:28:03;99258.91;;;17.19;42.30
7760;BME280;3924;48.830;9.262;2023-04-09T12:30:30;99266.53;;;17.31;42.21
7760;BME280;3924;48.830;9.262;2023-04-09T12:32:57;99249.75;;;17.23;42.03
7760;BME280;3924;48.830;9.262;2023-04-09T12:35:24;99252.56;;;16.61;42.71
7760;BME280;3924;48.830;9.262;2023-04-09T12:37:51;99250.03;;;16.11;43.73
7760;BME280;3924;48.830;9.262;2023-04-09T12:40:18;99250.41;;;16.50;43.12
7760;BME280;3924;48.830;9.262;2023-04-09T12:42:45;99251.09;;;16.55;42.91
7760;BME280;3924;48.830;9.262;2023-04-09T12:45:15;99244.63;;;16.82;42.36
7760;BME280;3924;48.830;9.262;2023-04-09T12:47:42;99241.06;;;17.39;41.56
7760;BME280;3924;48.830;9.262;2023-04-09T12:50:09;99233.69;;;17.83;40.60
7760;BME280;3924;48.830;9.262;2023-04-09T12:52:36;99225.91;;;18.19;40.07
7760;BME280;3924;48.830;9.262;2023-04-09T12:55:04;99234.06;;;18.37;39.70
7760;BME280;3924;48.830;9.262;2023-04-09T12:57:31;99231.69;;;18.26;39.89
7760;BME280;3924;48.830;9.262;2023-04-09T12:59:58;99226.91;;;18.06;39.94
7760;BME280;3924;48.830;9.262;2023-04-09T13:02:24;99228.16;;;17.48;40.89
7760;BME280;3924;48.830;9.262;2023-04-09T13:04:51;99216.88;;;17.32;41.10
7760;BME280;3924;48.830;9.262;2023-04-09T13:07:20;99219.56;;;17.06;41.36
7760;BME280;3924;48.830;9.262;2023-04-09T13:09:48;99217.75;;;16.93;41.80
7760;BME280;3924;48.830;9.262;2023-04-09T13:12:17;99206.53;;;17.20;40.98
7760;BME280;3924;48.830;9.262;2023-04-09T13:14:47;99216.22;;;17.61;40.52
7760;BME280;3924;48.830;9.262;2023-04-09T13:17:14;99208.66;;;17.84;39.95
7760;BME280;3924;48.830;9.262;2023-04-09T13:19:41;99205.25;;;17.61;40.03
7760;BME280;3924;48.830;9.262;2023-04-09T13:22:08;99202.38;;;17.84;39.80
7760;BME280;3924;48.830;9.262;2023-04-09T13:24:37;99200.09;;;18.03;39.61
7760;BME280;3924;48.830;9.262;2023-04-09T13:27:04;99207.78;;;18.27;39.01
7760;BME280;3924;48.830;9.262;2023-04-09T13:29:31;99206.38;;;18.59;38.60
7760;BME280;3924;48.830;9.262;2023-04-09T13:31:58;99201.44;;;18.44;38.48
7760;BME280;3924;48.830;9.262;2023-04-09T13:34:27;99191.53;;;17.70;39.45
7760;BME280;3924;48.830;9.262;2023-04-09T13:36:53;99190.75;;;17.69;39.74
7760;BME280;3924;48.830;9.262;2023-04-09T13:39:19;99186.72;;;17.67;39.44
7760;BME280;3924;48.830;9.262;2023-04-09T13:41:46;99184.63;;;17.55;39.72
7760;BME280;3924;48.830;9.262;2023-04-09T13:44:12;99187.84;;;17.22;39.97
7760;BME280;3924;48.830;9.262;2023-04-09T13:46:39;99186.50;;;16.94;40.37
7760;BME280;3924;48.830;9.262;2023-04-09T13:49:05;99183.59;;;16.99;40.40
7760;BME280;3924;48.830;9.262;2023-04-09T13:51:32;99178.13;;;16.90;40.58
7760;BME280;3924;48.830;9.262;2023-04-09T13:53:58;99181.59;;;16.74;40.59
7760;BME280;3924;48.830;9.262;2023-04-09T13:56:25;99177.31;;;16.99;40.29
7760;BME280;3924;48.830;9.262;2023-04-09T13:58:53;99169.16;;;17.59;39.37
7760;BME280;3924;48.830;9.262;2023-04-09T14:01:19;99164.59;;;17.98;38.64
7760;BME280;3924;48.830;9.262;2023-04-09T14:03:46;99167.66;;;18.05;38.39
7760;BME280;3924;48.830;9.262;2023-04-09T14:06:13;99169.28;;;17.63;38.71
7760;BME280;3924;48.830;9.262;2023-04-09T14:08:40;99166.22;;;17.12;39.61
7760;BME280;3924;48.830;9.262;2023-04-09T14:11:07;99161.78;;;16.68;40.13
7760;BME280;3924;48.830;9.262;2023-04-09T14:13:33;99159.91;;;16.46;40.46
7760;BME280;3924;48.830;9.262;2023-04-09T14:16:00;99160.44;;;16.65;40.12
7760;BME280;3924;48.830;9.262;2023-04-09T14:18:27;99152.84;;;17.19;39.25
7760;BME280;3924;48.830;9.262;2023-04-09T14:20:53;99153.94;;;17.70;38.59
7760;BME280;3924;48.830;9.262;2023-04-09T14:23:20;99148.56;;;18.17;37.99
7760;BME280;3924;48.830;9.262;2023-04-09T14:25:46;99146.34;;;18.49;37.56
7760;BME280;3924;48.830;9.262;2023-04-09T14:28:12;99156.00;;;18.55;37.36
7760;BME280;3924;48.830;9.262;2023-04-09T14:30:39;99150.22;;;18.48;37.40
7760;BME280;3924;48.830;9.262;2023-04-09T14:33:06;99152.19;;;18.39;37.23
7760;BME280;3924;48.830;9.262;2023-04-09T14:35:32;99151.09;;;18.31;37.56
7760;BME280;3924;48.830;9.262;2023-04-09T14:37:59;99143.88;;;18.18;37.48
7760;BME280;3924;48.830;9.262;2023-04-09T14:40:30;99149.25;;;17.97;37.91
7760;BME280;3924;48.830;9.262;2023-04-09T14:42:58;99153.00;;;17.84;37.99
7760;BME280;3924;48.830;9.262;2023-04-09T14:45:24;99150.44;;;17.79;37.93
7760;BME280;3924;48.830;9.262;2023-04-09T14:47:52;99153.34;;;17.73;37.91
7760;BME280;3924;48.830;9.262;2023-04-09T14:50:19;99155.44;;;17.85;37.74
7760;BME280;3924;48.830;9.262;2023-04-09T14:52:45;99150.72;;;17.94;37.50
7760;BME280;3924;48.830;9.262;2023-04-09T14:55:14;99147.16;;;18.02;37.44
7760;BME280;3924;48.830;9.262;2023-04-09T14:57:41;99146.19;;;18.07;37.38
7760;BME280;3924;48.830;9.262;2023-04-09T15:00:09;99149.31;;;17.80;37.73